Ana Sayfa
METAR-TAF:

METAR-TAF

Havaalanları :

Livingston County Spencer J. Hardy Airport

Howell, Michigan, Amerika Birleşik Devletleri

Enlem: 42-37-46N, Boylam: 083-59-03W, yükseklik: 293 m

Güncel hava durumu gözlemi

Rapor saat 07:35 UTC de 6 dakika önce yapıldı.
Rüzgar batıdan 6 kt
Sıcaklık -7°C
Nem 67%
Basınç 1015 hPa
Görüş mesafesi: 16.1 km
Açık gökyüzü

METAR: KOZW 290735Z AUTO 27006KT 10SM CLR M07/M12 A2996 RMK AO2 T10751117

Saat: 02:41 (07:41 UTC)


TAF: eksik

4.000'den fazla havaalanı için hava durumu gözlemleri ve tahminleri (METAR ve TAF raporları).

Kullanılabilir istasyonlar harita üzerinde sarı ve kırmızı noktalarla gösterilir.

İstasyonun adını görmek için fareyi noktanın üzerinde gezdirin.

Sonrasında hava gözlem ve tahminlerini görmek için tıklayın.

Haritayı değiştirmek için: yaklaştırmak için siyah artı işaretli yeşil düğmeye ve uzaklaştırmak için de eksi işaretli düğmeye hızla tıklayın; bitişik haritalar için yeşil okları kullanın.


METAR-TAF: